FAOR

Olifants River Bridge Landing Strip Airport

Olifants River Bridge, South Africa
METAR FAOR 151900Z 01016KT CAVOK 18/14 Q1025 NOSIG
Observed Flight Rules
Dec-15 @ 19:00 UTC (30 minutes ago) Visual Flight Rules
Wind Visibility Clouds
10° at 16 knots 10,000+ meters
  • Clear skies
Temperatures Readings
Current 18°C / 64°F
Dewpoint 14°C / 57°F
Humidity 78%
Altimeter 30.27" Hg
Pressure 1025 hPa
Elevation 1700
METAR FAOR 151900Z 01016KT CAVOK 18/14 Q1025 NOSIG
Observed Flight Rules
Dec-15 @ 19:00 UTC
(30 minutes ago)
VFR
Wind Visibility
10° at 16 knots 10,000+ meters
Clouds
  • Clear skies
Temperature Dewpoint
18°C / 64°F 14°C / 57°F
Humidity Altimeter Pressure
78% 30.27" Hg 1025 hPa